This is the latest recevied weather packets stored in our database for station/object N9OJR. If no packets are shown the sender has not sent any weather packets the latest 10 day(s).
| Time | Temp. | Humidity | Pressure | Rain* | Wind** | Luminosity | Snow |
|---|---|---|---|---|---|---|---|
| 1777827386 | 15° C | 48% | 1012.1 hPa | 0 mm | - | 719 W/m² | - |
| 1777827082 | 14.44° C | 48% | 1012.4 hPa | 0 mm | - | 711 W/m² | - |
| 1777826779 | 14.44° C | 46% | 1012.4 hPa | 0 mm | - | 716 W/m² | - |
| 1777826476 | 14.44° C | 49% | 1012.4 hPa | 0 mm | - | 714 W/m² | - |
| 1777826173 | 14.44° C | 49% | 1012.6 hPa | 0 mm | - | 728 W/m² | - |
| 1777825870 | 14.44° C | 49% | 1012.7 hPa | 0 mm | - | 748 W/m² | - |
| 1777825567 | 14.44° C | 49% | 1012.7 hPa | 0 mm | - | 735 W/m² | - |
| 1777825265 | 15° C | 50% | 1012.6 hPa | 0 mm | - | 713 W/m² | - |
| 1777824962 | 15° C | 48% | 1012.5 hPa | 0 mm | - | 739 W/m² | - |
| 1777824657 | 14.44° C | 52% | 1012.8 hPa | 0 mm | - | 769 W/m² | - |
| 1777824355 | 14.44° C | 51% | 1012.6 hPa | 0 mm | - | 789 W/m² | - |
| 1777824050 | 13.89° C | 53% | 1013 hPa | 0 mm | - | 799 W/m² | - |
| 1777823747 | 13.89° C | 50% | 1013.1 hPa | 0 mm | - | 805 W/m² | - |
| 1777823444 | 13.33° C | 52% | 1013.1 hPa | 0 mm | - | 795 W/m² | - |
| 1777823141 | 13.89° C | 49% | 1013.1 hPa | 0 mm | - | 794 W/m² | - |
| 1777822839 | 13.33° C | 51% | 1013.2 hPa | 0 mm | - | 845 W/m² | - |
| 1777822537 | 12.78° C | 54% | 1013 hPa | 0 mm | - | 852 W/m² | - |
| 1777822234 | 13.33° C | 51% | 1013.2 hPa | 0 mm | - | 863 W/m² | - |
| 1777821932 | 12.78° C | 54% | 1013.1 hPa | 0 mm | - | 857 W/m² | - |
| 1777821629 | 12.78° C | 55% | 1013.5 hPa | 0 mm | - | 835 W/m² | - |
| 1777821328 | 12.22° C | 54% | 1013.2 hPa | 0 mm | - | 822 W/m² | - |
| 1777821024 | 12.22° C | 52% | 1013.2 hPa | 0 mm | - | 810 W/m² | - |
| 1777820720 | 11.67° C | 58% | 1013.2 hPa | 0 mm | - | 796 W/m² | - |
| 1777820416 | 11.67° C | 54% | 1013.3 hPa | 0 mm | - | 794 W/m² | - |
| 1777820114 | 11.67° C | 55% | 1013.3 hPa | 0 mm | - | 788 W/m² | - |
* Rain latest hour (hover to see other rain measurements)
** Current wind speed in m/s (hover to see current wind gust speed)